Details From GOOY - Dakar Leopold Sedar Senghor Intl
To GMMN - Casablanca Mohammed V Intl
Flight Number -
Tags generated
Created
Modified
Stats Distance 1,257 nm / 2,328 km
Max Altitude 35,000 ft / 10,668 m
Waypoints 12
Social Downloads 0
Likes 0
Share VATSIM

Download

Looking for another format? Having issues loading an existing format? Contact us
Advertisement - Login to hide

Notes

Basic altitude profile: - Ascent Rate: 1800ft/min - Ascent Speed: 250kts - Cruise Altitude: 39000ft - Cruise Speed: 420kts - Descent Rate: 1500ft/min - Descent Speed: 250kts Options: - Use NATs: yes - Use PACOTS: yes - Use low airways: no - Use high airways: yes

Route

GOOY SLO UR975 VESEN GMMN

ID Type Via Altitude Latitude Longitude Leg Dist Tot Dist Heading (true) Name
O GOOY APT - 0 ft / 0 m 14.73971˚ -17.49023˚ - 0 nm - Dakar Leopold Sedar Senghor Intl
SLO NDB - 35,000 ft / 10,668 m 16.04908˚ -16.45714˚ 98 nm 98 nm 37° / 37° SAINT LOUIS NDB
ULNOT FIX UR975 (AWY-HI) 35,000 ft / 10,668 m 17.10722˚ -15.66917˚ 78 nm 176 nm 35° / 36° -
IDINI FIX UR975 (AWY-HI) 35,000 ft / 10,668 m 17.64306˚ -15.26583˚ 39 nm 216 nm 36° / 36° -
AR NDB UR975 (AWY-HI) 35,000 ft / 10,668 m 20.50231˚ -13.05908˚ 212 nm 429 nm 36° / 36° ATAR NDB
ZRT VOR UR975 (AWY-HI) 35,000 ft / 10,668 m 22.75853˚ -12.46158˚ 139 nm 568 nm 14° / 14° ZOUERAT VOR
BIMOG FIX UR975 (AWY-HI) 35,000 ft / 10,668 m 25.21667˚ -11.55000˚ 155 nm 724 nm 19° / 19° -
ECHED FIX UR975 (AWY-HI) 35,000 ft / 10,668 m 27.66667˚ -10.51667˚ 157 nm 881 nm 20° / 21° -
MOROX FIX UR975 (AWY-HI) 35,000 ft / 10,668 m 29.00000˚ -10.00889˚ 84 nm 966 nm 18° / 19° -
ADM VOR UR975 (AWY-HI) 35,000 ft / 10,668 m 30.32194˚ -9.38333˚ 85 nm 1052 nm 22° / 23° AGADIR VOR-DME
VESEN FIX UR975 (AWY-HI) 23,500 ft / 7,163 m 31.81417˚ -8.63167˚ 97 nm 1149 nm 23° / 24° -
O GMMN APT - 0 ft / 0 m 33.36747˚ -7.58996˚ 107 nm 1256 nm 29° / 30° Casablanca Mohammed V Intl

Altitude Profile

Advertisement - Login to hide

Weather


0- 5 10 15 20 25 30 35+ Temperature / ° C

Clouds and Precipitation
Forecast for 2018-05-28 00:00 UTC. Updated 9 hours ago

Ground ~20,000 ft ~40,000 ft Winds

GOOY

Details ICAO GOOY (DKR)
Name Dakar Leopold Sedar Senghor Intl
Region Senegal
Timezone Africa/Dakar (UTC+0.0)
Stats Elevation 85 ft / 26 m (AMSL)
Location 14.739711° -17.490226°
Runways 2
Magnetic Variation 7.296° W

METAR

Not found

TAF

TAF GOOY 272330Z 2800/2906 33013KT CAVOK= TAF GBYD 272330Z 2800/2906 27008KT CAVOK

Decode

Departure Runways

ID Width Length Bearing (true) Bearing (mag) Surface Threshold Offset Overrun Length
03 98 ft / 30 m 4,921 ft / 1,500 m 22.31° 29.61° Asphalt 0 ft / 0 m 98 ft / 30 m
18 148 ft / 45 m 11,511 ft / 3,509 m 172.57° 179.87° Asphalt 525 ft / 160 m 197 ft / 60 m
21 98 ft / 30 m 4,921 ft / 1,500 m 202.31° 209.61° Asphalt 0 ft / 0 m 1,590 ft / 485 m
36 148 ft / 45 m 11,511 ft / 3,509 m 352.57° 359.87° Asphalt 0 ft / 0 m 197 ft / 60 m

GMMN

Details ICAO GMMN (CMN)
Name Casablanca Mohammed V Intl
Region Morocco
Timezone Africa/Casablanca (UTC+0.0)
Stats Elevation 656 ft / 200 m (AMSL)
Location 33.367466° -7.589964°
Runways 2
Magnetic Variation 1.766° W

METAR

Not found

TAF

TAF GMMN 272300Z 2800/2906 33004KT 9999 SCT016 PROB30 2803/2807 3000 BR SCT006 BECMG 2812/2816 34014KT CAVOK

Decode

Destination Runways

ID Width Length Bearing (true) Bearing (mag) Surface Threshold Offset Overrun Length
17L 148 ft / 45 m 12,224 ft / 3,726 m 164.03° 165.80° Asphalt 0 ft / 0 m 295 ft / 90 m
17R 148 ft / 45 m 12,196 ft / 3,717 m 164.03° 165.80° Asphalt 0 ft / 0 m 197 ft / 60 m
35L 148 ft / 45 m 12,196 ft / 3,717 m 344.04° 345.81° Asphalt 0 ft / 0 m 180 ft / 55 m
35R 148 ft / 45 m 12,224 ft / 3,726 m 344.04° 345.81° Asphalt 0 ft / 0 m 995 ft / 303 m

Approach Navaids

Runway Type Ident Frequency Range Bearing (true) Bearing (mag) Slope Elevation
35L Localiser INL 110.70 MHz 18 nm / 33 km 344.03° 345.80° - 656 ft / 200 m (AMSL)
35L Glidescope INL 110.70 MHz 10 nm / 19 km 344.03° 345.80° 3.00° 656 ft / 200 m (AMSL)
35L DME INL 110.70 MHz 18 nm / 33 km - - - 656 ft / 200 m (AMSL)
35R Localiser INR 109.90 MHz 18 nm / 33 km 344.04° 345.80° - 656 ft / 200 m (AMSL)
35R Glidescope INR 109.90 MHz 10 nm / 19 km 344.04° 345.80° 2.70° 656 ft / 200 m (AMSL)

Popular Alternatives